Time;durP1;ratioP1;P1;durP2;ratioP2;P2;SDS_P1;SDS_P2;PMS_P1;PMS_P2;Temp;Humidity;BMP_temperature;BMP_pressure;BME280_temperature;BME280_humidity;BME280_pressure;Samples;Min_cycle;Max_cycle;Signal;HPM_P1;HPM_P2
2021/07/27 00:02:04;;;;;;;7.20;5.47;;;;;;;20.77;82.06;96257.39;1755241;80;20951;-79
2021/07/27 00:04:29;;;;;;;6.37;5.00;;;;;;;20.78;81.85;96258.98;1765313;80;21290;-79
2021/07/27 00:06:55;;;;;;;6.53;5.50;;;;;;;20.76;81.42;96251.84;1744807;81;20889;-79
2021/07/27 00:09:21;;;;;;;5.55;4.70;;;;;;;20.77;81.28;96244.19;1762706;80;20911;-79
2021/07/27 00:11:47;;;;;;;6.65;5.22;;;;;;;20.72;81.20;96236.75;1771410;80;20980;-79
2021/07/27 00:14:13;;;;;;;6.45;4.90;;;;;;;20.61;80.70;96234.52;1733244;81;20992;-79
2021/07/27 00:16:39;;;;;;;9.10;5.08;;;;;;;20.44;80.59;96216.66;1744720;80;21340;-79
2021/07/27 00:19:05;;;;;;;10.93;5.17;;;;;;;20.26;80.77;96215.11;1750859;80;20890;-79
2021/07/27 00:21:31;;;;;;;6.00;4.40;;;;;;;20.14;81.10;96219.19;1742264;80;21036;-79
2021/07/27 00:23:56;;;;;;;7.97;5.50;;;;;;;20.06;81.21;96213.04;1734454;81;21303;-79
2021/07/27 00:26:24;;;;;;;6.62;5.37;;;;;;;19.94;81.24;96198.65;1725461;81;21015;-79
2021/07/27 00:28:50;;;;;;;6.78;6.08;;;;;;;19.85;81.41;96206.72;1732288;81;21401;-79
2021/07/27 00:31:17;;;;;;;7.60;6.05;;;;;;;19.76;81.59;96197.63;1764584;80;20996;-79
2021/07/27 00:33:44;;;;;;;10.32;5.25;;;;;;;19.66;81.69;96198.28;1769619;80;21293;-79
2021/07/27 00:36:10;;;;;;;6.12;5.53;;;;;;;19.60;82.12;96188.72;1768462;80;21121;-79
2021/07/27 00:38:36;;;;;;;6.37;5.30;;;;;;;19.55;82.45;96186.02;1762976;80;21015;-80
2021/07/27 00:41:02;;;;;;;8.35;6.03;;;;;;;19.50;82.74;96172.20;1772405;80;20935;-80
2021/07/27 00:43:28;;;;;;;10.28;5.80;;;;;;;19.50;82.84;96180.63;1745938;80;21002;-80
2021/07/27 00:45:54;;;;;;;8.45;5.58;;;;;;;19.52;82.99;96175.91;1756249;80;21123;-80
2021/07/27 00:48:20;;;;;;;8.53;6.20;;;;;;;19.55;83.13;96174.69;1744467;80;20987;-80
2021/07/27 00:50:45;;;;;;;8.40;5.10;;;;;;;19.55;83.20;96166.26;1774748;80;20972;-79
2021/07/27 00:53:11;;;;;;;7.95;6.25;;;;;;;19.50;83.41;96161.66;1767843;80;21301;-80
2021/07/27 00:55:38;;;;;;;8.93;5.65;;;;;;;19.47;83.52;96156.09;1747140;79;21069;-80
2021/07/27 00:58:03;;;;;;;7.87;5.85;;;;;;;19.52;83.76;96156.66;1762235;80;21371;-80
2021/07/27 01:00:29;;;;;;;10.95;7.92;;;;;;;19.58;83.85;96155.74;1768208;79;21313;-80
2021/07/27 01:02:55;;;;;;;11.53;6.20;;;;;;;19.61;83.70;96165.27;1765575;80;20988;-80
2021/07/27 01:05:21;;;;;;;7.90;6.08;;;;;;;19.62;83.67;96156.84;1756626;79;21406;-80
2021/07/27 01:07:47;;;;;;;11.48;6.80;;;;;;;19.64;83.71;96171.89;1758961;79;20943;-80
2021/07/27 01:10:16;;;;;;;11.30;7.08;;;;;;;19.68;83.75;96180.38;1746231;80;21034;-80
2021/07/27 01:12:45;;;;;;;13.25;7.60;;;;;;;19.74;83.70;96193.92;1771396;80;20956;-80
2021/07/27 01:15:11;;;;;;;9.23;7.45;;;;;;;19.79;83.67;96205.05;1747951;80;20979;-80
2021/07/27 01:17:36;;;;;;;8.28;6.83;;;;;;;19.86;83.82;96225.45;1754748;79;20958;-80
2021/07/27 01:44:40;;;;;;;11.80;9.90;;;;;;;20.08;84.30;96306.70;1755294;81;21056;-80
2021/07/27 01:47:03;;;;;;;12.33;9.00;;;;;;;20.09;84.49;96310.14;1745557;81;21928;-80
2021/07/27 01:49:29;;;;;;;8.98;7.90;;;;;;;20.13;84.98;96305.16;1743274;81;21065;-80
2021/07/27 01:51:55;;;;;;;9.83;8.58;;;;;;;20.17;84.69;96316.30;1745047;81;21018;-80
2021/07/27 01:54:40;;;;;;;10.35;8.05;;;;;;;20.20;84.41;96316.36;1745029;81;20979;-79
2021/07/27 01:56:58;;;;;;;8.98;7.87;;;;;;;20.22;84.58;96312.95;1736159;81;20943;-79
2021/07/27 01:59:23;;;;;;;11.85;8.45;;;;;;;20.23;84.37;96307.95;1742119;81;20990;-79
2021/07/27 02:01:49;;;;;;;10.00;8.20;;;;;;;20.25;84.33;96307.98;1752737;81;21316;-79
2021/07/27 02:04:15;;;;;;;9.70;8.58;;;;;;;20.28;84.40;96320.67;1702250;83;20973;-79
2021/07/27 02:06:41;;;;;;;10.15;9.00;;;;;;;20.26;84.16;96327.24;1710469;83;21030;-79
2021/07/27 02:09:08;;;;;;;9.45;8.43;;;;;;;20.29;84.22;96326.23;1744834;81;21078;-79
2021/07/27 02:11:40;;;;;;;10.55;9.25;;;;;;;20.34;84.20;96321.55;1746757;81;20900;-79
2021/07/27 02:14:05;;;;;;;11.67;8.87;;;;;;;20.38;84.06;96319.50;1745241;81;20968;-79
2021/07/27 02:16:30;;;;;;;13.15;9.33;;;;;;;20.39;83.86;96326.37;1720271;81;20979;-79
2021/07/27 02:18:59;;;;;;;11.85;9.35;;;;;;;20.41;84.00;96318.73;1772408;80;20947;-79
2021/07/27 02:21:25;;;;;;;12.60;9.73;;;;;;;20.42;83.80;96309.80;1771100;80;20960;-79
2021/07/27 02:23:51;;;;;;;11.57;9.18;;;;;;;20.43;83.68;96300.31;1741515;81;21026;-79
2021/07/27 02:26:17;;;;;;;12.75;9.45;;;;;;;20.45;83.64;96288.98;1746144;81;21051;-78
2021/07/27 02:28:42;;;;;;;11.50;10.28;;;;;;;20.41;83.44;96287.06;1740421;81;21043;-79
2021/07/27 02:31:13;;;;;;;11.90;9.28;;;;;;;20.32;83.44;96288.80;1757342;81;20914;-79
2021/07/27 02:33:37;;;;;;;12.73;9.05;;;;;;;20.28;83.82;96285.05;1744598;81;21337;-79
2021/07/27 02:36:03;;;;;;;11.40;7.45;;;;;;;20.26;83.96;96287.67;1745690;81;20959;-79
2021/07/27 02:38:29;;;;;;;8.83;5.95;;;;;;;20.21;83.66;96277.86;1746180;81;20940;-79
2021/07/27 02:40:54;;;;;;;7.50;6.58;;;;;;;20.18;83.69;96275.71;1739853;81;21275;-79
2021/07/27 02:43:20;;;;;;;13.25;7.22;;;;;;;20.18;83.74;96280.98;1724878;82;21373;-79
2021/07/27 02:45:46;;;;;;;11.30;6.62;;;;;;;20.22;83.74;96282.09;1740549;80;21001;-79
2021/07/27 02:48:12;;;;;;;9.80;6.80;;;;;;;20.24;83.76;96291.88;1740912;80;21065;-78
2021/07/27 02:50:43;;;;;;;8.88;7.30;;;;;;;20.29;83.73;96281.89;1755427;81;21004;-80
2021/07/27 02:53:10;;;;;;;11.95;7.83;;;;;;;20.29;83.68;96285.33;1732783;82;20992;-79
2021/07/27 02:55:36;;;;;;;9.10;6.75;;;;;;;20.28;83.63;96285.58;1749350;81;20958;-79
2021/07/27 02:58:02;;;;;;;10.28;6.47;;;;;;;20.26;83.70;96301.66;1743147;81;20915;-78
2021/07/27 03:00:28;;;;;;;8.98;6.95;;;;;;;20.24;83.57;96305.06;1762306;80;21209;-79
2021/07/27 03:02:55;;;;;;;7.00;6.35;;;;;;;20.25;83.56;96315.09;1745431;81;21258;-79
2021/07/27 03:05:21;;;;;;;14.20;6.55;;;;;;;20.27;83.65;96323.03;1760347;80;20960;-78
2021/07/27 03:07:50;;;;;;;15.48;7.42;;;;;;;20.32;83.69;96317.81;1743638;81;21013;-79
2021/07/27 03:12:55;;;;;;;10.03;7.45;;;;;;;20.30;83.47;96303.28;1747855;81;21326;-79
2021/07/27 03:15:23;;;;;;;11.70;7.22;;;;;;;20.22;83.51;96303.19;1737686;81;20987;-79
2021/07/27 03:17:54;;;;;;;10.03;7.33;;;;;;;20.17;83.82;96297.03;1758953;80;20999;-79
2021/07/27 03:20:20;;;;;;;7.92;6.92;;;;;;;20.16;83.80;96291.48;1737720;81;20921;-79
2021/07/27 03:22:46;;;;;;;10.25;6.85;;;;;;;20.15;83.91;96282.77;1759332;80;20943;-79
2021/07/27 03:25:17;;;;;;;10.53;7.17;;;;;;;20.13;83.96;96274.31;1747926;81;20949;-79
2021/07/27 03:27:44;;;;;;;10.50;6.60;;;;;;;20.11;83.98;96272.44;1739265;81;20965;-79
2021/07/27 03:30:10;;;;;;;11.38;7.58;;;;;;;20.13;84.09;96273.52;1755577;81;20964;-79
2021/07/27 03:32:36;;;;;;;10.95;7.80;;;;;;;20.13;83.97;96285.38;1730053;81;20938;-79
2021/07/27 03:35:04;;;;;;;9.23;6.92;;;;;;;20.14;84.11;96290.41;1760329;80;21430;-79
2021/07/27 03:37:31;;;;;;;11.05;6.47;;;;;;;20.16;83.97;96301.52;1746381;81;20938;-78
2021/07/27 03:39:57;;;;;;;8.58;6.50;;;;;;;20.16;83.99;96312.06;1717188;81;20984;-78
2021/07/27 03:42:26;;;;;;;11.85;8.00;;;;;;;20.20;84.14;96317.67;1742888;81;21023;-78
2021/07/27 03:44:56;;;;;;;11.48;8.28;;;;;;;20.25;84.15;96319.84;1753977;81;20932;-78
2021/07/27 03:47:22;;;;;;;9.90;7.35;;;;;;;20.23;84.19;96310.06;1751302;80;20973;-78
2021/07/27 03:49:47;;;;;;;11.48;7.45;;;;;;;20.16;84.22;96293.59;1719017;82;21892;-78
2021/07/27 03:52:13;;;;;;;13.68;7.37;;;;;;;20.10;84.36;96307.77;1747761;81;20939;-78
2021/07/27 03:54:40;;;;;;;12.45;8.55;;;;;;;20.05;84.71;96312.98;1747197;81;20995;-78
2021/07/27 03:57:05;;;;;;;10.13;7.42;;;;;;;20.00;84.46;96320.81;1753470;81;21338;-78
2021/07/27 03:59:31;;;;;;;8.33;6.45;;;;;;;19.98;84.75;96312.34;1753525;80;20932;-78
2021/07/27 04:01:57;;;;;;;14.38;7.00;;;;;;;19.97;84.84;96310.75;1743679;81;20964;-78
2021/07/27 04:04:23;;;;;;;17.20;7.53;;;;;;;19.97;84.58;96301.52;1744879;81;21229;-78
2021/07/27 04:06:49;;;;;;;10.75;6.40;;;;;;;19.97;84.82;96308.11;1749532;81;21201;-78
2021/07/27 04:09:15;;;;;;;10.53;6.75;;;;;;;19.97;84.96;96300.20;1746351;81;20923;-78
2021/07/27 04:11:40;;;;;;;14.55;7.33;;;;;;;19.94;84.91;96290.14;1745250;81;20912;-78
2021/07/27 04:14:07;;;;;;;11.15;7.17;;;;;;;19.93;85.09;96290.66;1753405;80;20942;-78
2021/07/27 04:16:33;;;;;;;12.35;7.15;;;;;;;19.94;85.23;96282.23;1745870;81;20950;-78
2021/07/27 04:18:58;;;;;;;10.10;7.25;;;;;;;19.90;85.15;96267.42;1744946;81;20983;-78
2021/07/27 04:21:25;;;;;;;15.60;7.53;;;;;;;19.94;84.85;96270.37;1743714;81;21015;-78
2021/07/27 04:23:51;;;;;;;10.82;7.12;;;;;;;19.96;84.86;96266.96;1750131;81;20929;-78
2021/07/27 04:26:16;;;;;;;12.50;6.42;;;;;;;20.00;85.01;96275.45;1744178;81;21011;-78
2021/07/27 04:28:42;;;;;;;12.20;6.78;;;;;;;20.04;84.50;96277.11;1721898;81;21357;-78
2021/07/27 04:31:08;;;;;;;10.15;6.55;;;;;;;20.11;84.80;96276.92;1742815;81;20971;-79
2021/07/27 04:33:37;;;;;;;7.95;6.53;;;;;;;20.14;85.00;96274.58;1745746;81;20980;-78
2021/07/27 04:36:04;;;;;;;9.28;7.40;;;;;;;20.18;84.87;96269.12;1745184;81;21071;-78
2021/07/27 04:38:30;;;;;;;11.93;7.00;;;;;;;20.23;84.45;96263.09;1747325;79;20972;-79
2021/07/27 04:40:56;;;;;;;12.13;6.10;;;;;;;20.29;84.74;96257.63;1748157;80;20994;-78
2021/07/27 04:43:22;;;;;;;11.12;6.70;;;;;;;20.34;84.60;96250.31;1752759;80;20995;-78
2021/07/27 04:45:48;;;;;;;12.82;7.50;;;;;;;20.36;84.37;96241.11;1736989;81;20929;-78
2021/07/27 04:48:13;;;;;;;10.98;6.60;;;;;;;20.43;84.38;96240.14;1763337;80;20999;-78
2021/07/27 04:50:39;;;;;;;11.05;6.95;;;;;;;20.43;84.38;96240.14;1756389;79;20935;-78
2021/07/27 04:53:08;;;;;;;10.55;7.03;;;;;;;20.52;83.86;96248.70;1753973;80;20935;-79
2021/07/27 04:55:34;;;;;;;10.68;7.10;;;;;;;20.55;84.25;96250.84;1762664;80;21261;-78
2021/07/27 04:58:03;;;;;;;11.43;6.95;;;;;;;20.56;83.71;96269.59;1752663;81;21253;-78
2021/07/27 05:00:28;;;;;;;11.33;7.42;;;;;;;20.54;83.30;96269.56;1766891;80;22000;-78
2021/07/27 05:02:57;;;;;;;9.68;7.22;;;;;;;20.53;83.72;96264.81;1760814;79;20940;-78
2021/07/27 05:05:22;;;;;;;10.60;6.67;;;;;;;20.53;83.72;96264.81;1763084;80;21016;-77
2021/07/27 05:07:47;;;;;;;12.20;6.67;;;;;;;20.53;83.11;96262.70;1759517;80;20965;-78
2021/07/27 05:10:16;;;;;;;10.70;6.30;;;;;;;20.52;82.87;96261.10;1761751;79;20929;-77
2021/07/27 05:12:41;;;;;;;11.28;6.90;;;;;;;20.51;82.11;96256.34;1762506;80;20929;-78
2021/07/27 05:15:08;;;;;;;9.80;6.83;;;;;;;20.50;82.42;96261.35;1755567;79;20992;-78
2021/07/27 05:17:33;;;;;;;12.10;6.67;;;;;;;20.53;83.03;96276.69;1764262;79;20956;-78
2021/07/27 05:19:59;;;;;;;12.53;6.58;;;;;;;20.57;83.32;96277.78;1770139;79;20996;-77
2021/07/27 05:22:25;;;;;;;7.40;5.85;;;;;;;20.59;82.72;96288.09;1773032;79;21305;-78
2021/07/27 05:24:51;;;;;;;11.50;7.83;;;;;;;20.61;83.46;96319.80;1766139;79;21253;-78
2021/07/27 05:27:22;;;;;;;9.68;7.85;;;;;;;20.59;83.16;96329.80;1767363;80;20973;-78
2021/07/27 05:29:49;;;;;;;10.73;9.40;;;;;;;20.64;83.73;96342.25;1769042;79;21218;-78
2021/07/27 05:32:14;;;;;;;12.23;10.10;;;;;;;20.64;84.20;96360.21;1756369;81;21308;-77
2021/07/27 05:34:40;;;;;;;14.95;13.48;;;;;;;20.68;84.53;96369.78;1746955;80;20954;-77
2021/07/27 05:37:06;;;;;;;16.25;14.73;;;;;;;20.63;84.71;96378.42;1754395;80;20900;-77
2021/07/27 05:39:32;;;;;;;19.98;17.98;;;;;;;20.58;85.09;96388.13;1778904;78;21247;-77
2021/07/27 05:41:58;;;;;;;21.15;18.95;;;;;;;20.49;85.16;96386.94;1778678;80;20919;-77
2021/07/27 05:44:25;;;;;;;23.70;21.23;;;;;;;20.44;85.63;96390.31;1774571;80;20970;-77
2021/07/27 05:46:55;;;;;;;24.50;21.80;;;;;;;20.38;85.72;96392.06;1749145;81;21221;-78
2021/07/27 05:49:21;;;;;;;24.25;21.60;;;;;;;20.36;85.74;96381.48;1741153;80;20916;-78
2021/07/27 05:51:48;;;;;;;24.85;22.25;;;;;;;20.35;85.93;96391.23;1782717;79;20923;-78
2021/07/27 05:54:14;;;;;;;25.45;22.60;;;;;;;20.35;86.03;96389.92;1781402;80;20948;-77
2021/07/27 05:56:39;;;;;;;28.02;23.60;;;;;;;20.41;86.17;96392.12;1771037;80;21248;-77
2021/07/27 05:59:05;;;;;;;26.23;23.38;;;;;;;20.41;86.17;96392.12;1777937;80;20943;-78
2021/07/27 06:01:31;;;;;;;25.35;22.73;;;;;;;20.50;86.40;96397.77;1779385;80;20984;-77
2021/07/27 06:03:56;;;;;;;26.82;23.73;;;;;;;20.58;86.43;96406.08;1779577;80;21005;-77
2021/07/27 06:06:22;;;;;;;26.55;23.75;;;;;;;20.56;85.92;96396.30;1746600;81;20976;-78
2021/07/27 06:08:48;;;;;;;29.55;26.42;;;;;;;20.61;86.23;96400.31;1785963;80;21237;-78
2021/07/27 06:11:15;;;;;;;29.60;25.50;;;;;;;20.62;85.84;96390.55;1736777;81;20968;-78
2021/07/27 06:13:41;;;;;;;27.32;24.43;;;;;;;20.62;85.81;96385.27;1777966;80;20927;-79
2021/07/27 06:16:07;;;;;;;30.32;27.02;;;;;;;20.63;85.86;96396.10;1743216;81;20928;-79
2021/07/27 06:18:33;;;;;;;29.05;26.12;;;;;;;20.68;86.02;96398.83;1729551;82;20918;-79
2021/07/27 06:21:00;;;;;;;31.25;25.88;;;;;;;20.73;85.83;96402.84;1773686;80;20939;-79
2021/07/27 06:23:26;;;;;;;27.25;24.35;;;;;;;20.77;85.72;96408.42;1775599;80;20929;-79
2021/07/27 06:25:52;;;;;;;30.88;27.75;;;;;;;20.79;85.70;96398.41;1774915;80;21291;-79
2021/07/27 06:28:18;;;;;;;31.15;27.77;;;;;;;20.78;85.60;96400.25;1783198;80;20904;-79
2021/07/27 06:30:43;;;;;;;33.15;29.55;;;;;;;20.83;85.63;96402.19;1775470;80;20943;-79
2021/07/27 06:33:09;;;;;;;32.48;29.07;;;;;;;20.88;85.53;96404.88;1772910;80;21239;-79
2021/07/27 06:35:35;;;;;;;32.25;28.87;;;;;;;20.86;85.37;96411.73;1771387;80;20934;-79
2021/07/27 06:38:01;;;;;;;30.32;27.07;;;;;;;20.87;85.41;96413.84;1777777;80;20967;-79
2021/07/27 06:40:27;;;;;;;29.75;26.17;;;;;;;20.88;85.17;96408.84;1765721;80;21000;-79
2021/07/27 06:42:53;;;;;;;30.40;27.02;;;;;;;20.81;84.71;96422.20;1759816;81;20948;-79
2021/07/27 06:45:19;;;;;;;31.02;27.45;;;;;;;20.74;84.62;96422.12;1757990;81;20958;-79
2021/07/27 06:47:45;;;;;;;32.33;26.93;;;;;;;20.75;85.00;96423.20;1758705;81;20914;-79
2021/07/27 06:50:11;;;;;;;28.90;25.80;;;;;;;20.80;84.91;96428.53;1712735;83;20927;-79
2021/07/27 06:52:37;;;;;;;30.05;26.93;;;;;;;20.75;84.71;96424.52;1722761;82;21276;-80
2021/07/27 06:55:05;;;;;;;37.13;30.52;;;;;;;20.77;84.87;96424.27;1754810;80;20956;-80
2021/07/27 06:57:31;;;;;;;32.17;28.47;;;;;;;20.77;84.83;96432.19;1757525;80;20985;-80
2021/07/27 06:59:57;;;;;;;31.82;28.47;;;;;;;20.70;84.73;96435.55;1754503;81;21396;-79
2021/07/27 07:02:24;;;;;;;32.85;29.18;;;;;;;20.70;84.92;96437.66;1750702;81;20963;-79
2021/07/27 07:04:50;;;;;;;35.65;30.10;;;;;;;20.68;85.11;96437.11;1741590;81;20923;-79
2021/07/27 07:07:15;;;;;;;42.50;32.35;;;;;;;20.71;85.16;96439.78;1757318;81;21049;-79
2021/07/27 07:09:41;;;;;;;35.38;29.18;;;;;;;20.74;85.18;96440.08;1757364;81;20924;-79
2021/07/27 07:12:08;;;;;;;53.92;40.65;;;;;;;20.78;85.31;96444.34;1753224;81;20879;-79
2021/07/27 07:14:34;;;;;;;53.35;41.23;;;;;;;20.86;85.42;96451.86;1747402;81;20945;-79
2021/07/27 07:17:01;;;;;;;36.95;28.47;;;;;;;20.91;85.46;96456.67;1756253;80;21038;-80
2021/07/27 07:19:28;;;;;;;35.65;29.98;;;;;;;20.92;85.21;96460.11;1753392;80;20884;-79
2021/07/27 07:21:54;;;;;;;45.48;35.38;;;;;;;20.92;85.10;96460.11;1753748;80;21292;-78
2021/07/27 07:24:19;;;;;;;41.77;33.80;;;;;;;20.91;84.78;96458.00;1752697;80;20973;-79
2021/07/27 07:26:46;;;;;;;35.52;31.25;;;;;;;20.92;85.01;96463.55;1754083;80;20973;-79
2021/07/27 07:29:12;;;;;;;38.10;32.88;;;;;;;20.91;85.07;96465.92;1745672;81;21307;-79
2021/07/27 07:31:38;;;;;;;44.53;35.85;;;;;;;20.90;84.78;96470.92;1747746;80;20937;-79
2021/07/27 07:34:03;;;;;;;36.68;30.37;;;;;;;20.95;85.33;96473.63;1757056;80;20955;-78
2021/07/27 07:36:29;;;;;;;34.30;29.72;;;;;;;21.02;85.15;96473.46;1754949;81;21365;-79
2021/07/27 07:38:55;;;;;;;33.30;29.10;;;;;;;21.02;84.80;96468.70;1755164;80;20973;-79
2021/07/27 07:41:23;;;;;;;34.38;30.00;;;;;;;21.09;84.72;96471.95;1769699;80;20963;-79
2021/07/27 07:43:49;;;;;;;32.58;28.10;;;;;;;21.22;85.15;96471.06;1752432;80;21294;-78
2021/07/27 07:46:15;;;;;;;36.90;30.08;;;;;;;21.33;84.90;96474.66;1756999;80;21051;-78
2021/07/27 07:48:41;;;;;;;34.63;27.67;;;;;;;21.41;84.51;96476.84;1747108;80;20923;-79
2021/07/27 07:51:06;;;;;;;32.15;28.57;;;;;;;21.43;84.00;96477.39;1769739;79;20883;-79
2021/07/27 07:53:32;;;;;;;33.58;28.98;;;;;;;21.52;84.46;96478.56;1771834;79;21189;-79
2021/07/27 07:55:58;;;;;;;33.63;28.98;;;;;;;21.67;84.34;96476.60;1770933;79;20959;-79
2021/07/27 07:58:24;;;;;;;35.33;29.67;;;;;;;21.85;84.75;96470.16;1770209;79;20935;-78
2021/07/27 08:00:50;;;;;;;30.82;27.02;;;;;;;22.00;84.41;96468.17;1769030;79;20939;-79
2021/07/27 08:03:16;;;;;;;29.40;26.12;;;;;;;22.16;83.70;96480.52;1769010;79;20937;-79
2021/07/27 08:05:44;;;;;;;27.80;24.75;;;;;;;22.27;83.43;96474.76;1761203;79;21360;-79
2021/07/27 08:08:09;;;;;;;28.40;23.95;;;;;;;22.35;82.98;96476.95;1745842;81;20928;-78
2021/07/27 08:10:35;;;;;;;27.67;24.72;;;;;;;22.38;82.44;96475.11;1739526;81;20926;-79
2021/07/27 08:13:01;;;;;;;27.37;24.40;;;;;;;22.43;82.81;96482.56;1736430;81;21237;-78
2021/07/27 08:15:27;;;;;;;24.92;22.32;;;;;;;22.44;82.66;96480.70;1769434;79;20912;-79
2021/07/27 08:17:53;;;;;;;27.13;21.70;;;;;;;22.46;82.44;96476.78;1768341;79;20956;-79
2021/07/27 08:20:18;;;;;;;23.95;21.45;;;;;;;22.49;82.30;96481.29;1766694;79;20931;-79
2021/07/27 08:22:44;;;;;;;22.60;20.23;;;;;;;22.54;82.75;96486.61;1759461;79;21319;-78
2021/07/27 08:25:18;;;;;;;26.07;21.90;;;;;;;22.57;83.03;96492.72;1760291;79;21002;-79
2021/07/27 08:27:44;;;;;;;23.87;21.40;;;;;;;22.59;81.92;96495.37;1765028;79;20957;-78
2021/07/27 08:30:13;;;;;;;24.35;21.90;;;;;;;22.61;81.71;96499.89;1769024;79;20940;-78
2021/07/27 08:32:49;;;;;;;24.10;21.60;;;;;;;22.63;81.47;96504.95;1724047;81;20983;-80
2021/07/27 08:35:16;;;;;;;24.55;21.73;;;;;;;22.68;81.92;96504.98;1766978;79;20929;-79
2021/07/27 08:37:42;;;;;;;23.47;20.97;;;;;;;22.70;81.61;96503.67;1773168;80;21183;-79
2021/07/27 08:40:09;;;;;;;23.55;21.05;;;;;;;22.92;81.30;96505.41;1782800;79;20960;-79
2021/07/27 08:42:35;;;;;;;24.18;21.68;;;;;;;23.11;80.99;96504.47;1772044;79;20924;-78
2021/07/27 08:45:03;;;;;;;25.27;22.75;;;;;;;23.29;80.14;96496.86;1784838;80;20885;-79
2021/07/27 08:47:30;;;;;;;20.08;17.95;;;;;;;23.53;80.06;96498.52;1769332;79;20967;-79
2021/07/27 08:52:37;;;;;;;20.23;17.90;;;;;;;23.99;78.50;96509.27;1797582;78;22861;-79
2021/07/27 08:55:08;;;;;;;24.30;20.17;;;;;;;24.15;77.78;96509.55;1739627;80;21027;-79
2021/07/27 08:57:34;;;;;;;20.97;18.10;;;;;;;24.25;78.78;96514.08;1741871;80;20896;-79
2021/07/27 09:00:00;;;;;;;21.20;17.92;;;;;;;24.33;78.20;96505.59;1753582;80;20935;-78
2021/07/27 09:02:31;;;;;;;22.52;19.62;;;;;;;24.42;78.60;96504.55;1759877;80;20913;-78
2021/07/27 09:05:08;;;;;;;18.15;16.45;;;;;;;24.41;78.24;96510.92;1760334;80;20928;-78
2021/07/27 09:07:35;;;;;;;17.55;15.65;;;;;;;24.35;76.82;96507.45;1762081;80;20914;-79
2021/07/27 09:10:16;;;;;;;20.40;17.67;;;;;;;24.39;76.53;96511.16;1754876;80;20905;-79
2021/07/27 09:12:58;;;;;;;;;;;;;;;24.41;77.18;96509.59;1746541;80;20963;-78
2021/07/27 09:15:28;;;;;;;17.50;15.63;;;;;;;24.27;75.94;96511.95;1742787;80;20123;-79
2021/07/27 09:17:57;;;;;;;17.73;16.00;;;;;;;24.20;76.90;96512.72;1754967;80;21355;-79
2021/07/27 09:20:33;;;;;;;19.40;16.73;;;;;;;24.16;77.39;96509.81;1749651;80;21106;-79
2021/07/27 09:23:01;;;;;;;18.57;15.72;;;;;;;24.22;77.87;96515.91;1746570;80;21329;-79
2021/07/27 09:25:29;;;;;;;17.98;16.07;;;;;;;24.15;77.08;96516.18;1740021;80;20959;-80
2021/07/27 09:28:07;;;;;;;19.67;17.57;;;;;;;24.15;77.01;96518.84;1749668;80;20985;-79
2021/07/27 09:30:33;;;;;;;16.50;14.80;;;;;;;24.26;77.33;96519.65;1755367;80;20984;-80
2021/07/27 09:32:59;;;;;;;12.50;10.93;;;;;;;24.35;76.52;96527.90;1746001;80;20967;-79
2021/07/27 09:35:30;;;;;;;10.58;9.48;;;;;;;24.30;72.48;96527.38;1747392;80;20905;-79
2021/07/27 09:38:16;;;;;;;10.95;9.90;;;;;;;24.29;74.12;96528.94;1736253;80;21269;-80
2021/07/27 09:41:05;;;;;;;12.28;11.08;;;;;;;24.39;73.25;96531.08;1708743;81;21004;-79
2021/07/27 09:43:31;;;;;;;13.53;12.20;;;;;;;24.54;74.25;96528.95;1696710;83;21000;-79
2021/07/27 09:46:01;;;;;;;13.60;12.18;;;;;;;24.60;73.69;96525.25;1713887;82;20948;-79
2021/07/27 09:48:29;;;;;;;11.78;10.60;;;;;;;24.74;74.49;96531.61;1707621;82;21321;-80
2021/07/27 09:50:56;;;;;;;13.40;11.18;;;;;;;24.74;72.85;96533.47;1700500;82;21039;-79
2021/07/27 09:53:23;;;;;;;12.00;10.43;;;;;;;24.88;72.89;96528.38;1709617;82;20948;-80
2021/07/27 09:55:51;;;;;;;11.60;10.20;;;;;;;25.01;73.77;96534.50;1700963;82;20956;-80
2021/07/27 09:58:17;;;;;;;11.83;10.63;;;;;;;24.91;72.26;96535.30;1702435;82;20948;-80
2021/07/27 10:00:50;;;;;;;10.55;9.55;;;;;;;24.67;71.80;96529.73;1694603;82;21254;-80
2021/07/27 10:03:23;;;;;;;10.38;9.45;;;;;;;24.77;71.96;96536.38;1703387;82;21333;-80
2021/07/27 10:06:02;;;;;;;11.60;9.23;;;;;;;24.78;72.22;96534.52;1699353;83;21000;-80
2021/07/27 10:08:36;;;;;;;10.75;9.65;;;;;;;24.76;72.62;96529.48;1716106;82;21239;-80
2021/07/27 10:11:12;;;;;;;11.50;10.48;;;;;;;24.92;72.34;96519.62;1699524;82;20980;-80
2021/07/27 10:13:45;;;;;;;9.78;8.88;;;;;;;25.05;72.92;96516.40;1702102;82;21317;-81
2021/07/27 10:16:21;;;;;;;10.30;8.80;;;;;;;25.14;72.06;96517.98;1704515;83;21011;-81
2021/07/27 10:18:47;;;;;;;11.35;8.48;;;;;;;25.21;72.44;96518.48;1698137;83;20921;-81
2021/07/27 10:21:25;;;;;;;10.75;8.90;;;;;;;25.27;71.72;96523.27;1714840;83;21016;-82
2021/07/27 10:24:19;;;;;;;11.10;10.00;;;;;;;25.28;70.46;96530.17;1705435;83;20960;-80
2021/07/27 10:26:44;;;;;;;10.30;9.28;;;;;;;25.16;70.52;96527.81;1714648;83;21012;-80
2021/07/27 10:29:09;;;;;;;11.90;8.85;;;;;;;25.05;71.87;96535.01;1686272;83;21033;-79
2021/07/27 10:31:43;;;;;;;9.48;8.63;;;;;;;24.98;72.26;96535.01;1707912;83;21033;-80
2021/07/27 10:34:10;;;;;;;8.83;8.03;;;;;;;25.05;72.59;96537.66;1709012;83;21527;-80
2021/07/27 10:36:41;;;;;;;9.93;8.93;;;;;;;25.15;70.76;96538.19;1701438;83;20943;-80
2021/07/27 10:39:13;;;;;;;;;;;;;;;25.26;70.68;96535.77;1699515;83;20962;-80
2021/07/27 10:41:47;;;;;;;10.70;9.40;;;;;;;25.40;71.06;96538.11;1700328;83;20107;-80
2021/07/27 10:44:20;;;;;;;10.05;9.10;;;;;;;25.57;70.98;96532.98;1704823;83;20932;-81
2021/07/27 10:46:46;;;;;;;8.83;7.97;;;;;;;25.66;71.64;96526.80;1715632;83;20976;-79
2021/07/27 10:49:25;;;;;;;9.53;8.63;;;;;;;25.59;69.47;96526.86;1712091;83;21250;-80
2021/07/27 10:51:53;;;;;;;9.55;8.68;;;;;;;25.87;69.72;96525.39;1685929;82;21073;-80
2021/07/27 10:54:28;;;;;;;10.00;8.63;;;;;;;25.87;69.72;96525.39;1701457;83;21080;-79
2021/07/27 10:57:04;;;;;;;9.20;8.25;;;;;;;25.93;68.62;96532.29;1698334;82;20965;-79
2021/07/27 10:59:32;;;;;;;9.50;8.50;;;;;;;25.81;68.52;96533.95;1704410;82;20945;-79
2021/07/27 11:01:59;;;;;;;11.43;10.40;;;;;;;25.92;68.27;96516.06;1699081;83;21058;-80
2021/07/27 11:04:31;;;;;;;9.38;8.50;;;;;;;25.96;68.48;96515.76;1673192;84;20928;-80
2021/07/27 11:07:16;;;;;;;10.38;9.38;;;;;;;25.96;68.48;96515.76;1698341;82;20945;-80
2021/07/27 11:09:53;;;;;;;9.63;8.68;;;;;;;26.05;68.01;96510.66;1738693;80;20950;-80
2021/07/27 11:12:43;;;;;;;10.15;9.28;;;;;;;26.12;66.91;96515.91;1737524;82;20906;-80
2021/07/27 11:15:13;;;;;;;;;;;;;;;26.25;68.43;96513.96;1739822;81;20989;-79
2021/07/27 11:17:52;;;;;;;10.05;8.93;;;;;;;26.39;66.73;96529.34;1747972;80;20350;-80
2021/07/27 11:20:23;;;;;;;10.05;9.00;;;;;;;26.41;67.14;96526.66;1706231;82;21245;-81
2021/07/27 11:22:55;;;;;;;9.70;8.80;;;;;;;26.56;66.53;96524.41;1728996;80;20996;-80
2021/07/27 11:25:23;;;;;;;10.08;9.08;;;;;;;26.72;66.46;96521.86;1720345;81;21000;-80
2021/07/27 11:27:49;;;;;;;9.03;8.23;;;;;;;26.76;65.29;96520.20;1741541;80;20980;-80
2021/07/27 11:30:15;;;;;;;10.45;9.43;;;;;;;26.81;66.82;96521.48;1727521;81;20952;-80
2021/07/27 11:32:50;;;;;;;8.50;7.70;;;;;;;26.93;66.62;96515.23;1725296;82;20976;-80
2021/07/27 11:35:22;;;;;;;8.60;7.70;;;;;;;26.93;66.14;96515.77;1732932;80;21321;-80
2021/07/27 11:38:03;;;;;;;9.03;8.23;;;;;;;27.02;66.13;96508.00;1753026;80;20979;-80
2021/07/27 11:40:29;;;;;;;;;;;;;;;26.92;64.62;96507.52;1748412;80;20948;-80
2021/07/27 11:43:05;;;;;;;8.75;7.95;;;;;;;27.00;65.22;96503.43;1741308;82;20147;-80
2021/07/27 11:45:29;;;;;;;9.38;8.48;;;;;;;26.92;65.58;96509.65;1736427;81;20921;-80
2021/07/27 11:47:54;;;;;;;9.13;8.30;;;;;;;27.04;64.88;96513.30;1744245;80;21005;-80
2021/07/27 11:50:29;;;;;;;8.03;7.22;;;;;;;27.17;66.89;96506.47;1752569;80;20936;-81
2021/07/27 11:53:02;;;;;;;8.83;8.13;;;;;;;27.20;65.88;96511.25;1729013;80;21084;-81
2021/07/27 11:55:38;;;;;;;13.80;12.50;;;;;;;27.17;64.45;96503.80;1730010;82;20996;-79
2021/07/27 11:58:05;;;;;;;10.93;9.83;;;;;;;27.19;64.83;96501.13;1739211;82;21069;-79